sensor_id;sensor_type;location;lat;lon;timestamp;P1;durP1;ratioP1;P2;durP2;ratioP2
57401;SDS011;43226;51.110;6.998;2023-09-08T00:02:17;5.13;;;4.63;;
57401;SDS011;43226;51.110;6.998;2023-09-08T00:04:43;9.87;;;5.17;;
57401;SDS011;43226;51.110;6.998;2023-09-08T00:07:08;6.23;;;5.17;;
57401;SDS011;43226;51.110;6.998;2023-09-08T00:09:33;5.03;;;4.50;;
57401;SDS011;43226;51.110;6.998;2023-09-08T00:11:58;6.57;;;4.50;;
57401;SDS011;43226;51.110;6.998;2023-09-08T00:14:23;11.73;;;5.37;;
57401;SDS011;43226;51.110;6.998;2023-09-08T00:16:49;8.00;;;4.93;;
57401;SDS011;43226;51.110;6.998;2023-09-08T00:19:14;5.10;;;4.33;;
57401;SDS011;43226;51.110;6.998;2023-09-08T00:21:39;7.20;;;5.00;;
57401;SDS011;43226;51.110;6.998;2023-09-08T00:24:04;5.90;;;4.57;;
57401;SDS011;43226;51.110;6.998;2023-09-08T00:26:30;5.37;;;4.80;;
57401;SDS011;43226;51.110;6.998;2023-09-08T00:28:55;7.53;;;4.47;;
57401;SDS011;43226;51.110;6.998;2023-09-08T00:31:20;5.43;;;4.30;;
57401;SDS011;43226;51.110;6.998;2023-09-08T00:33:45;13.13;;;5.00;;
57401;SDS011;43226;51.110;6.998;2023-09-08T00:36:10;11.60;;;4.70;;
57401;SDS011;43226;51.110;6.998;2023-09-08T00:38:36;6.00;;;5.10;;
57401;SDS011;43226;51.110;6.998;2023-09-08T00:41:01;5.90;;;4.93;;
57401;SDS011;43226;51.110;6.998;2023-09-08T00:43:26;6.27;;;4.90;;
57401;SDS011;43226;51.110;6.998;2023-09-08T00:45:52;10.07;;;4.80;;
57401;SDS011;43226;51.110;6.998;2023-09-08T00:48:18;8.13;;;5.33;;
57401;SDS011;43226;51.110;6.998;2023-09-08T00:50:43;15.60;;;5.13;;
57401;SDS011;43226;51.110;6.998;2023-09-08T00:53:09;6.47;;;5.40;;
57401;SDS011;43226;51.110;6.998;2023-09-08T00:55:35;7.77;;;5.20;;
57401;SDS011;43226;51.110;6.998;2023-09-08T00:58:00;9.40;;;5.60;;
57401;SDS011;43226;51.110;6.998;2023-09-08T01:00:26;6.63;;;4.70;;
57401;SDS011;43226;51.110;6.998;2023-09-08T01:02:52;6.87;;;4.73;;
57401;SDS011;43226;51.110;6.998;2023-09-08T01:05:17;6.03;;;4.77;;
57401;SDS011;43226;51.110;6.998;2023-09-08T01:07:42;7.33;;;4.60;;
57401;SDS011;43226;51.110;6.998;2023-09-08T01:10:08;5.10;;;4.50;;
57401;SDS011;43226;51.110;6.998;2023-09-08T01:12:35;5.97;;;5.27;;
57401;SDS011;43226;51.110;6.998;2023-09-08T01:15:01;5.57;;;4.40;;
57401;SDS011;43226;51.110;6.998;2023-09-08T01:17:26;9.40;;;5.00;;
57401;SDS011;43226;51.110;6.998;2023-09-08T01:19:52;4.40;;;4.00;;
57401;SDS011;43226;51.110;6.998;2023-09-08T01:27:28;6.13;;;4.77;;
57401;SDS011;43226;51.110;6.998;2023-09-08T01:29:54;5.57;;;4.90;;
57401;SDS011;43226;51.110;6.998;2023-09-08T01:32:19;8.40;;;5.33;;
57401;SDS011;43226;51.110;6.998;2023-09-08T01:34:45;6.17;;;4.93;;
57401;SDS011;43226;51.110;6.998;2023-09-08T01:37:10;6.87;;;5.23;;
57401;SDS011;43226;51.110;6.998;2023-09-08T01:39:35;6.70;;;5.03;;
57401;SDS011;43226;51.110;6.998;2023-09-08T01:42:01;6.20;;;5.60;;
57401;SDS011;43226;51.110;6.998;2023-09-08T01:44:26;13.67;;;5.10;;
57401;SDS011;43226;51.110;6.998;2023-09-08T01:46:51;8.20;;;5.60;;
57401;SDS011;43226;51.110;6.998;2023-09-08T01:49:21;7.10;;;5.20;;
57401;SDS011;43226;51.110;6.998;2023-09-08T01:51:46;7.43;;;5.53;;
57401;SDS011;43226;51.110;6.998;2023-09-08T01:54:12;6.55;;;4.97;;
57401;SDS011;43226;51.110;6.998;2023-09-08T01:56:37;8.63;;;5.00;;
57401;SDS011;43226;51.110;6.998;2023-09-08T01:59:02;6.60;;;5.20;;
57401;SDS011;43226;51.110;6.998;2023-09-08T02:01:27;7.17;;;5.50;;
57401;SDS011;43226;51.110;6.998;2023-09-08T02:03:52;6.22;;;4.90;;
57401;SDS011;43226;51.110;6.998;2023-09-08T02:06:18;11.50;;;4.80;;
57401;SDS011;43226;51.110;6.998;2023-09-08T02:08:43;6.63;;;4.80;;
57401;SDS011;43226;51.110;6.998;2023-09-08T02:11:08;8.02;;;4.90;;
57401;SDS011;43226;51.110;6.998;2023-09-08T02:13:33;5.33;;;4.83;;
57401;SDS011;43226;51.110;6.998;2023-09-08T02:15:58;10.33;;;5.47;;
57401;SDS011;43226;51.110;6.998;2023-09-08T02:18:25;9.17;;;5.40;;
57401;SDS011;43226;51.110;6.998;2023-09-08T02:20:50;6.00;;;4.47;;
57401;SDS011;43226;51.110;6.998;2023-09-08T02:23:15;7.40;;;5.00;;
57401;SDS011;43226;51.110;6.998;2023-09-08T02:25:40;5.70;;;5.07;;
57401;SDS011;43226;51.110;6.998;2023-09-08T02:28:06;5.83;;;4.93;;
57401;SDS011;43226;51.110;6.998;2023-09-08T02:30:31;6.53;;;4.80;;
57401;SDS011;43226;51.110;6.998;2023-09-08T02:32:56;8.80;;;5.80;;
57401;SDS011;43226;51.110;6.998;2023-09-08T02:35:23;14.13;;;6.07;;
57401;SDS011;43226;51.110;6.998;2023-09-08T02:37:48;8.43;;;4.73;;
57401;SDS011;43226;51.110;6.998;2023-09-08T02:40:13;7.00;;;5.83;;
57401;SDS011;43226;51.110;6.998;2023-09-08T02:42:38;8.10;;;5.40;;
57401;SDS011;43226;51.110;6.998;2023-09-08T02:45:04;8.10;;;5.80;;
57401;SDS011;43226;51.110;6.998;2023-09-08T02:47:29;8.00;;;6.03;;
57401;SDS011;43226;51.110;6.998;2023-09-08T02:49:54;5.57;;;5.03;;
57401;SDS011;43226;51.110;6.998;2023-09-08T02:52:19;9.73;;;5.50;;
57401;SDS011;43226;51.110;6.998;2023-09-08T02:54:45;8.23;;;4.93;;
57401;SDS011;43226;51.110;6.998;2023-09-08T02:57:10;11.00;;;4.97;;
57401;SDS011;43226;51.110;6.998;2023-09-08T02:59:35;7.43;;;5.25;;
57401;SDS011;43226;51.110;6.998;2023-09-08T03:02:00;9.47;;;5.60;;
57401;SDS011;43226;51.110;6.998;2023-09-08T03:04:25;11.33;;;5.40;;
57401;SDS011;43226;51.110;6.998;2023-09-08T03:06:51;5.50;;;4.87;;
57401;SDS011;43226;51.110;6.998;2023-09-08T03:09:16;8.20;;;5.83;;
57401;SDS011;43226;51.110;6.998;2023-09-08T03:11:41;6.25;;;4.60;;
57401;SDS011;43226;51.110;6.998;2023-09-08T03:14:06;6.63;;;5.17;;
57401;SDS011;43226;51.110;6.998;2023-09-08T03:16:31;6.97;;;5.00;;
57401;SDS011;43226;51.110;6.998;2023-09-08T03:18:56;5.77;;;5.20;;
57401;SDS011;43226;51.110;6.998;2023-09-08T03:21:22;6.17;;;5.27;;
57401;SDS011;43226;51.110;6.998;2023-09-08T03:23:47;5.70;;;5.10;;
57401;SDS011;43226;51.110;6.998;2023-09-08T03:26:13;7.43;;;4.63;;
57401;SDS011;43226;51.110;6.998;2023-09-08T03:28:38;6.60;;;5.90;;
57401;SDS011;43226;51.110;6.998;2023-09-08T03:31:06;9.27;;;5.20;;
57401;SDS011;43226;51.110;6.998;2023-09-08T03:33:31;5.43;;;4.93;;
57401;SDS011;43226;51.110;6.998;2023-09-08T03:35:57;7.40;;;5.87;;
57401;SDS011;43226;51.110;6.998;2023-09-08T03:38:22;6.37;;;5.53;;
57401;SDS011;43226;51.110;6.998;2023-09-08T03:40:48;13.30;;;6.10;;
57401;SDS011;43226;51.110;6.998;2023-09-08T03:43:13;8.20;;;5.20;;
57401;SDS011;43226;51.110;6.998;2023-09-08T03:45:38;7.63;;;5.10;;
57401;SDS011;43226;51.110;6.998;2023-09-08T03:48:03;12.07;;;5.67;;
57401;SDS011;43226;51.110;6.998;2023-09-08T03:50:29;7.27;;;4.97;;
57401;SDS011;43226;51.110;6.998;2023-09-08T03:52:54;8.90;;;5.60;;
57401;SDS011;43226;51.110;6.998;2023-09-08T03:55:20;5.43;;;4.93;;
57401;SDS011;43226;51.110;6.998;2023-09-08T03:57:45;7.23;;;5.47;;
57401;SDS011;43226;51.110;6.998;2023-09-08T04:00:10;6.82;;;5.50;;
57401;SDS011;43226;51.110;6.998;2023-09-08T04:02:36;8.07;;;4.83;;
57401;SDS011;43226;51.110;6.998;2023-09-08T04:05:01;12.30;;;5.53;;
57401;SDS011;43226;51.110;6.998;2023-09-08T04:07:26;7.33;;;5.13;;
57401;SDS011;43226;51.110;6.998;2023-09-08T04:09:51;7.13;;;6.43;;
57401;SDS011;43226;51.110;6.998;2023-09-08T04:12:16;7.47;;;5.40;;
57401;SDS011;43226;51.110;6.998;2023-09-08T04:14:41;11.20;;;6.30;;
57401;SDS011;43226;51.110;6.998;2023-09-08T04:17:07;13.23;;;6.67;;
57401;SDS011;43226;51.110;6.998;2023-09-08T04:19:33;19.00;;;5.87;;
57401;SDS011;43226;51.110;6.998;2023-09-08T04:21:58;12.40;;;6.73;;
57401;SDS011;43226;51.110;6.998;2023-09-08T04:24:23;6.80;;;6.10;;
57401;SDS011;43226;51.110;6.998;2023-09-08T04:26:48;8.47;;;5.77;;
57401;SDS011;43226;51.110;6.998;2023-09-08T04:29:13;8.40;;;6.03;;
57401;SDS011;43226;51.110;6.998;2023-09-08T04:31:39;7.93;;;6.00;;
57401;SDS011;43226;51.110;6.998;2023-09-08T04:34:04;8.93;;;6.30;;
57401;SDS011;43226;51.110;6.998;2023-09-08T04:36:29;9.60;;;6.10;;
57401;SDS011;43226;51.110;6.998;2023-09-08T04:38:55;6.80;;;5.50;;
57401;SDS011;43226;51.110;6.998;2023-09-08T04:41:20;7.33;;;5.83;;
57401;SDS011;43226;51.110;6.998;2023-09-08T04:43:45;10.30;;;6.33;;
57401;SDS011;43226;51.110;6.998;2023-09-08T04:46:11;13.83;;;6.63;;
57401;SDS011;43226;51.110;6.998;2023-09-08T04:48:36;8.63;;;6.73;;
57401;SDS011;43226;51.110;6.998;2023-09-08T04:51:01;9.30;;;6.73;;
57401;SDS011;43226;51.110;6.998;2023-09-08T04:53:26;9.40;;;5.93;;
57401;SDS011;43226;51.110;6.998;2023-09-08T04:55:51;8.60;;;5.90;;
57401;SDS011;43226;51.110;6.998;2023-09-08T04:58:17;10.80;;;6.43;;
57401;SDS011;43226;51.110;6.998;2023-09-08T05:00:42;7.90;;;5.80;;
57401;SDS011;43226;51.110;6.998;2023-09-08T05:03:07;7.23;;;6.20;;
57401;SDS011;43226;51.110;6.998;2023-09-08T05:05:32;10.30;;;7.10;;
57401;SDS011;43226;51.110;6.998;2023-09-08T05:07:57;9.97;;;7.47;;
57401;SDS011;43226;51.110;6.998;2023-09-08T05:10:23;8.00;;;6.33;;
57401;SDS011;43226;51.110;6.998;2023-09-08T05:12:48;10.37;;;6.67;;
57401;SDS011;43226;51.110;6.998;2023-09-08T05:15:14;10.37;;;6.20;;
57401;SDS011;43226;51.110;6.998;2023-09-08T05:17:41;7.30;;;5.97;;
57401;SDS011;43226;51.110;6.998;2023-09-08T05:20:06;7.20;;;6.13;;
57401;SDS011;43226;51.110;6.998;2023-09-08T05:22:31;7.63;;;5.77;;
57401;SDS011;43226;51.110;6.998;2023-09-08T05:24:57;9.73;;;6.90;;
57401;SDS011;43226;51.110;6.998;2023-09-08T05:27:22;8.20;;;6.50;;
57401;SDS011;43226;51.110;6.998;2023-09-08T05:29:47;8.10;;;6.20;;
57401;SDS011;43226;51.110;6.998;2023-09-08T05:32:12;8.77;;;5.87;;
57401;SDS011;43226;51.110;6.998;2023-09-08T05:34:37;8.37;;;6.90;;
57401;SDS011;43226;51.110;6.998;2023-09-08T05:37:03;8.23;;;6.20;;
57401;SDS011;43226;51.110;6.998;2023-09-08T05:39:28;6.17;;;4.70;;
57401;SDS011;43226;51.110;6.998;2023-09-08T05:41:53;13.03;;;5.83;;
57401;SDS011;43226;51.110;6.998;2023-09-08T05:44:18;12.17;;;5.87;;
57401;SDS011;43226;51.110;6.998;2023-09-08T05:46:43;9.67;;;5.53;;
57401;SDS011;43226;51.110;6.998;2023-09-08T05:49:09;10.00;;;6.53;;
57401;SDS011;43226;51.110;6.998;2023-09-08T05:51:34;10.30;;;5.63;;
57401;SDS011;43226;51.110;6.998;2023-09-08T05:53:59;9.73;;;4.97;;
57401;SDS011;43226;51.110;6.998;2023-09-08T05:56:26;8.50;;;5.03;;
57401;SDS011;43226;51.110;6.998;2023-09-08T05:58:54;9.93;;;4.80;;
57401;SDS011;43226;51.110;6.998;2023-09-08T06:01:19;6.93;;;4.87;;
57401;SDS011;43226;51.110;6.998;2023-09-08T06:03:44;5.90;;;4.33;;
57401;SDS011;43226;51.110;6.998;2023-09-08T06:06:10;4.80;;;4.27;;
57401;SDS011;43226;51.110;6.998;2023-09-08T06:08:35;6.55;;;4.95;;
57401;SDS011;43226;51.110;6.998;2023-09-08T06:11:00;4.20;;;3.80;;
57401;SDS011;43226;51.110;6.998;2023-09-08T06:13:25;14.40;;;4.47;;
57401;SDS011;43226;51.110;6.998;2023-09-08T06:15:50;5.63;;;3.63;;
57401;SDS011;43226;51.110;6.998;2023-09-08T06:18:16;7.33;;;4.33;;
57401;SDS011;43226;51.110;6.998;2023-09-08T06:20:45;5.30;;;4.40;;
57401;SDS011;43226;51.110;6.998;2023-09-08T06:23:10;7.60;;;3.83;;
57401;SDS011;43226;51.110;6.998;2023-09-08T06:25:36;5.17;;;4.00;;
57401;SDS011;43226;51.110;6.998;2023-09-08T06:28:01;4.63;;;4.20;;
57401;SDS011;43226;51.110;6.998;2023-09-08T06:30:26;6.63;;;4.30;;
57401;SDS011;43226;51.110;6.998;2023-09-08T06:32:51;5.60;;;3.73;;
57401;SDS011;43226;51.110;6.998;2023-09-08T06:35:16;4.47;;;3.90;;
57401;SDS011;43226;51.110;6.998;2023-09-08T06:37:41;6.10;;;4.30;;
57401;SDS011;43226;51.110;6.998;2023-09-08T06:40:07;4.30;;;3.90;;
57401;SDS011;43226;51.110;6.998;2023-09-08T06:42:32;8.53;;;4.17;;
57401;SDS011;43226;51.110;6.998;2023-09-08T06:44:58;3.60;;;3.30;;
57401;SDS011;43226;51.110;6.998;2023-09-08T06:47:23;4.60;;;4.20;;
57401;SDS011;43226;51.110;6.998;2023-09-08T06:49:48;4.80;;;4.30;;
57401;SDS011;43226;51.110;6.998;2023-09-08T06:52:14;5.73;;;4.20;;
57401;SDS011;43226;51.110;6.998;2023-09-08T06:54:39;4.97;;;3.80;;
57401;SDS011;43226;51.110;6.998;2023-09-08T06:57:04;4.40;;;4.10;;
57401;SDS011;43226;51.110;6.998;2023-09-08T06:59:29;4.63;;;4.20;;
57401;SDS011;43226;51.110;6.998;2023-09-08T07:01:54;7.20;;;4.17;;
57401;SDS011;43226;51.110;6.998;2023-09-08T07:04:20;4.30;;;3.67;;
57401;SDS011;43226;51.110;6.998;2023-09-08T07:06:45;3.60;;;3.30;;
57401;SDS011;43226;51.110;6.998;2023-09-08T07:09:11;4.80;;;4.03;;
57401;SDS011;43226;51.110;6.998;2023-09-08T07:11:36;5.30;;;4.13;;
57401;SDS011;43226;51.110;6.998;2023-09-08T07:14:01;4.73;;;4.10;;
57401;SDS011;43226;51.110;6.998;2023-09-08T07:16:28;4.30;;;3.90;;
57401;SDS011;43226;51.110;6.998;2023-09-08T07:18:53;5.83;;;3.80;;
57401;SDS011;43226;51.110;6.998;2023-09-08T07:21:18;4.23;;;3.60;;
57401;SDS011;43226;51.110;6.998;2023-09-08T07:23:44;5.37;;;4.30;;
57401;SDS011;43226;51.110;6.998;2023-09-08T07:26:09;8.07;;;4.57;;
57401;SDS011;43226;51.110;6.998;2023-09-08T07:28:34;5.40;;;3.97;;
57401;SDS011;43226;51.110;6.998;2023-09-08T07:31:05;4.47;;;4.07;;
57401;SDS011;43226;51.110;6.998;2023-09-08T07:33:31;6.27;;;4.43;;
57401;SDS011;43226;51.110;6.998;2023-09-08T07:35:56;7.80;;;4.80;;
57401;SDS011;43226;51.110;6.998;2023-09-08T07:38:22;8.40;;;4.67;;
57401;SDS011;43226;51.110;6.998;2023-09-08T07:40:47;4.60;;;3.93;;
57401;SDS011;43226;51.110;6.998;2023-09-08T07:43:12;5.27;;;4.70;;
57401;SDS011;43226;51.110;6.998;2023-09-08T07:45:37;9.13;;;4.50;;
57401;SDS011;43226;51.110;6.998;2023-09-08T07:48:06;8.87;;;4.97;;
57401;SDS011;43226;51.110;6.998;2023-09-08T07:50:31;6.30;;;5.67;;
57401;SDS011;43226;51.110;6.998;2023-09-08T07:52:57;5.70;;;4.10;;
57401;SDS011;43226;51.110;6.998;2023-09-08T07:55:22;9.13;;;4.33;;
57401;SDS011;43226;51.110;6.998;2023-09-08T07:57:48;5.73;;;3.93;;
57401;SDS011;43226;51.110;6.998;2023-09-08T08:00:14;5.90;;;4.33;;
57401;SDS011;43226;51.110;6.998;2023-09-08T08:02:41;4.27;;;3.97;;
57401;SDS011;43226;51.110;6.998;2023-09-08T08:05:06;6.50;;;4.40;;
57401;SDS011;43226;51.110;6.998;2023-09-08T08:07:32;7.53;;;4.13;;
57401;SDS011;43226;51.110;6.998;2023-09-08T08:09:57;7.20;;;4.23;;
57401;SDS011;43226;51.110;6.998;2023-09-08T08:12:22;5.60;;;3.97;;
57401;SDS011;43226;51.110;6.998;2023-09-08T08:14:47;4.50;;;4.10;;
57401;SDS011;43226;51.110;6.998;2023-09-08T08:17:12;5.13;;;4.10;;
57401;SDS011;43226;51.110;6.998;2023-09-08T08:19:38;8.10;;;4.30;;
57401;SDS011;43226;51.110;6.998;2023-09-08T08:22:03;6.43;;;4.70;;
57401;SDS011;43226;51.110;6.998;2023-09-08T08:24:28;4.73;;;4.20;;
57401;SDS011;43226;51.110;6.998;2023-09-08T08:26:53;10.10;;;4.07;;
57401;SDS011;43226;51.110;6.998;2023-09-08T08:29:19;5.50;;;5.00;;
57401;SDS011;43226;51.110;6.998;2023-09-08T08:31:44;8.23;;;4.00;;
57401;SDS011;43226;51.110;6.998;2023-09-08T08:34:09;4.73;;;4.23;;
57401;SDS011;43226;51.110;6.998;2023-09-08T08:36:34;5.53;;;4.40;;
57401;SDS011;43226;51.110;6.998;2023-09-08T08:38:59;4.90;;;4.17;;
57401;SDS011;43226;51.110;6.998;2023-09-08T08:41:25;4.27;;;3.87;;
57401;SDS011;43226;51.110;6.998;2023-09-08T08:43:50;5.20;;;4.50;;
57401;SDS011;43226;51.110;6.998;2023-09-08T08:46:16;4.77;;;4.13;;
57401;SDS011;43226;51.110;6.998;2023-09-08T08:48:42;5.00;;;4.40;;
57401;SDS011;43226;51.110;6.998;2023-09-08T08:51:08;5.73;;;4.77;;
57401;SDS011;43226;51.110;6.998;2023-09-08T08:53:33;5.60;;;4.20;;
57401;SDS011;43226;51.110;6.998;2023-09-08T08:55:59;6.50;;;4.30;;
57401;SDS011;43226;51.110;6.998;2023-09-08T08:58:24;5.13;;;4.63;;
57401;SDS011;43226;51.110;6.998;2023-09-08T09:00:52;5.07;;;3.90;;
57401;SDS011;43226;51.110;6.998;2023-09-08T09:03:19;8.30;;;4.30;;
57401;SDS011;43226;51.110;6.998;2023-09-08T09:05:45;9.77;;;4.80;;
57401;SDS011;43226;51.110;6.998;2023-09-08T09:08:10;6.30;;;4.40;;
57401;SDS011;43226;51.110;6.998;2023-09-08T09:10:36;5.80;;;4.20;;
57401;SDS011;43226;51.110;6.998;2023-09-08T09:13:01;3.97;;;3.67;;
57401;SDS011;43226;51.110;6.998;2023-09-08T09:15:28;6.63;;;4.57;;
57401;SDS011;43226;51.110;6.998;2023-09-08T09:18:05;5.37;;;4.07;;
57401;SDS011;43226;51.110;6.998;2023-09-08T09:20:31;7.80;;;4.70;;
57401;SDS011;43226;51.110;6.998;2023-09-08T09:22:56;6.67;;;4.50;;
57401;SDS011;43226;51.110;6.998;2023-09-08T09:25:22;7.87;;;4.60;;
57401;SDS011;43226;51.110;6.998;2023-09-08T09:27:51;4.90;;;4.03;;
57401;SDS011;43226;51.110;6.998;2023-09-08T09:30:17;8.00;;;4.73;;
57401;SDS011;43226;51.110;6.998;2023-09-08T09:32:43;10.27;;;3.90;;
57401;SDS011;43226;51.110;6.998;2023-09-08T09:35:09;5.80;;;4.30;;
57401;SDS011;43226;51.110;6.998;2023-09-08T09:37:34;5.20;;;4.50;;
57401;SDS011;43226;51.110;6.998;2023-09-08T09:40:00;6.13;;;4.53;;
57401;SDS011;43226;51.110;6.998;2023-09-08T09:42:27;6.50;;;4.87;;
57401;SDS011;43226;51.110;6.998;2023-09-08T09:44:52;6.87;;;4.13;;
57401;SDS011;43226;51.110;6.998;2023-09-08T09:47:18;5.20;;;4.60;;
57401;SDS011;43226;51.110;6.998;2023-09-08T09:49:47;5.80;;;4.53;;
57401;SDS011;43226;51.110;6.998;2023-09-08T09:52:13;6.00;;;4.60;;
57401;SDS011;43226;51.110;6.998;2023-09-08T09:54:41;6.03;;;4.23;;
57401;SDS011;43226;51.110;6.998;2023-09-08T09:57:07;5.30;;;3.80;;
57401;SDS011;43226;51.110;6.998;2023-09-08T09:59:33;7.10;;;4.33;;
57401;SDS011;43226;51.110;6.998;2023-09-08T10:01:58;5.10;;;4.33;;
57401;SDS011;43226;51.110;6.998;2023-09-08T10:04:24;7.70;;;4.50;;
57401;SDS011;43226;51.110;6.998;2023-09-08T10:06:49;4.30;;;3.90;;
57401;SDS011;43226;51.110;6.998;2023-09-08T10:09:16;4.53;;;4.10;;
57401;SDS011;43226;51.110;6.998;2023-09-08T10:14:09;5.60;;;4.60;;
57401;SDS011;43226;51.110;6.998;2023-09-08T10:16:36;5.63;;;4.50;;
57401;SDS011;43226;51.110;6.998;2023-09-08T10:19:04;6.50;;;4.63;;
57401;SDS011;43226;51.110;6.998;2023-09-08T10:21:30;5.13;;;4.63;;
57401;SDS011;43226;51.110;6.998;2023-09-08T10:24:04;5.67;;;4.20;;
57401;SDS011;43226;51.110;6.998;2023-09-08T10:26:33;5.23;;;4.07;;
57401;SDS011;43226;51.110;6.998;2023-09-08T10:28:59;4.50;;;4.10;;
57401;SDS011;43226;51.110;6.998;2023-09-08T10:31:25;4.93;;;4.53;;
57401;SDS011;43226;51.110;6.998;2023-09-08T10:33:51;5.83;;;3.90;;
57401;SDS011;43226;51.110;6.998;2023-09-08T10:36:18;9.10;;;5.07;;
57401;SDS011;43226;51.110;6.998;2023-09-08T10:38:44;5.93;;;4.23;;
57401;SDS011;43226;51.110;6.998;2023-09-08T10:43:47;9.67;;;4.87;;
57401;SDS011;43226;51.110;6.998;2023-09-08T10:46:23;5.63;;;4.30;;
57401;SDS011;43226;51.110;6.998;2023-09-08T10:48:48;4.57;;;4.13;;
57401;SDS011;43226;51.110;6.998;2023-09-08T10:51:14;6.77;;;4.83;;
57401;SDS011;43226;51.110;6.998;2023-09-08T10:53:40;5.20;;;4.27;;
57401;SDS011;43226;51.110;6.998;2023-09-08T10:56:05;8.23;;;4.07;;
57401;SDS011;43226;51.110;6.998;2023-09-08T10:58:34;8.40;;;4.77;;
57401;SDS011;43226;51.110;6.998;2023-09-08T11:01:03;5.00;;;4.40;;
57401;SDS011;43226;51.110;6.998;2023-09-08T11:06:04;11.13;;;4.50;;
57401;SDS011;43226;51.110;6.998;2023-09-08T11:08:29;10.70;;;4.27;;
57401;SDS011;43226;51.110;6.998;2023-09-08T11:10:55;5.37;;;4.87;;
57401;SDS011;43226;51.110;6.998;2023-09-08T11:13:20;4.80;;;4.30;;
57401;SDS011;43226;51.110;6.998;2023-09-08T11:15:45;5.37;;;4.87;;
57401;SDS011;43226;51.110;6.998;2023-09-08T11:18:10;4.90;;;4.40;;
57401;SDS011;43226;51.110;6.998;2023-09-08T11:20:36;7.73;;;3.83;;
57401;SDS011;43226;51.110;6.998;2023-09-08T11:23:01;6.37;;;4.30;;
57401;SDS011;43226;51.110;6.998;2023-09-08T11:25:26;6.33;;;4.60;;
57401;SDS011;43226;51.110;6.998;2023-09-08T11:27:51;5.20;;;4.70;;
57401;SDS011;43226;51.110;6.998;2023-09-08T11:30:17;5.33;;;3.87;;
57401;SDS011;43226;51.110;6.998;2023-09-08T11:32:42;4.70;;;4.30;;
57401;SDS011;43226;51.110;6.998;2023-09-08T11:35:09;5.13;;;4.60;;
57401;SDS011;43226;51.110;6.998;2023-09-08T11:37:38;5.13;;;4.63;;
57401;SDS011;43226;51.110;6.998;2023-09-08T11:40:04;5.00;;;4.13;;
57401;SDS011;43226;51.110;6.998;2023-09-08T11:42:37;4.73;;;4.33;;
57401;SDS011;43226;51.110;6.998;2023-09-08T11:45:02;4.43;;;3.80;;
57401;SDS011;43226;51.110;6.998;2023-09-08T11:47:29;7.70;;;4.40;;
57401;SDS011;43226;51.110;6.998;2023-09-08T11:49:54;5.33;;;4.40;;
57401;SDS011;43226;51.110;6.998;2023-09-08T11:52:22;4.23;;;3.77;;
57401;SDS011;43226;51.110;6.998;2023-09-08T11:54:47;6.80;;;4.20;;
57401;SDS011;43226;51.110;6.998;2023-09-08T11:57:12;5.03;;;3.80;;
57401;SDS011;43226;51.110;6.998;2023-09-08T11:59:38;4.37;;;3.97;;
57401;SDS011;43226;51.110;6.998;2023-09-08T12:02:04;5.00;;;4.50;;
57401;SDS011;43226;51.110;6.998;2023-09-08T12:04:29;4.63;;;4.30;;
57401;SDS011;43226;51.110;6.998;2023-09-08T12:06:54;4.40;;;4.00;;
57401;SDS011;43226;51.110;6.998;2023-09-08T12:09:22;5.50;;;4.17;;
57401;SDS011;43226;51.110;6.998;2023-09-08T12:11:47;4.90;;;4.00;;
57401;SDS011;43226;51.110;6.998;2023-09-08T12:14:13;5.47;;;4.67;;
57401;SDS011;43226;51.110;6.998;2023-09-08T12:16:39;6.30;;;4.77;;
57401;SDS011;43226;51.110;6.998;2023-09-08T12:19:05;8.00;;;4.97;;
57401;SDS011;43226;51.110;6.998;2023-09-08T12:21:31;6.03;;;4.90;;
57401;SDS011;43226;51.110;6.998;2023-09-08T12:23:59;4.23;;;3.93;;
57401;SDS011;43226;51.110;6.998;2023-09-08T12:26:24;6.50;;;4.13;;
57401;SDS011;43226;51.110;6.998;2023-09-08T12:28:50;4.63;;;4.23;;
57401;SDS011;43226;51.110;6.998;2023-09-08T12:31:16;4.47;;;4.07;;
57401;SDS011;43226;51.110;6.998;2023-09-08T12:33:42;4.50;;;3.97;;
57401;SDS011;43226;51.110;6.998;2023-09-08T12:36:15;4.50;;;4.10;;
57401;SDS011;43226;51.110;6.998;2023-09-08T12:38:41;4.83;;;4.30;;
57401;SDS011;43226;51.110;6.998;2023-09-08T12:41:06;4.40;;;4.00;;
57401;SDS011;43226;51.110;6.998;2023-09-08T12:43:31;6.83;;;4.40;;
57401;SDS011;43226;51.110;6.998;2023-09-08T12:45:57;5.87;;;4.53;;
57401;SDS011;43226;51.110;6.998;2023-09-08T12:48:22;4.27;;;3.97;;
57401;SDS011;43226;51.110;6.998;2023-09-08T12:50:47;4.70;;;4.30;;
57401;SDS011;43226;51.110;6.998;2023-09-08T12:53:16;6.90;;;4.13;;
57401;SDS011;43226;51.110;6.998;2023-09-08T12:55:43;4.50;;;4.00;;
57401;SDS011;43226;51.110;6.998;2023-09-08T12:58:08;7.23;;;4.47;;
57401;SDS011;43226;51.110;6.998;2023-09-08T13:00:33;6.77;;;3.83;;
57401;SDS011;43226;51.110;6.998;2023-09-08T13:02:59;4.67;;;4.07;;
57401;SDS011;43226;51.110;6.998;2023-09-08T13:05:24;5.47;;;4.40;;
57401;SDS011;43226;51.110;6.998;2023-09-08T13:07:49;5.00;;;4.50;;
57401;SDS011;43226;51.110;6.998;2023-09-08T13:10:14;8.10;;;4.20;;
57401;SDS011;43226;51.110;6.998;2023-09-08T13:12:41;5.13;;;4.47;;
57401;SDS011;43226;51.110;6.998;2023-09-08T13:15:06;7.40;;;4.53;;
57401;SDS011;43226;51.110;6.998;2023-09-08T13:17:31;3.90;;;3.60;;
57401;SDS011;43226;51.110;6.998;2023-09-08T13:19:57;8.20;;;4.37;;
57401;SDS011;43226;51.110;6.998;2023-09-08T13:22:22;8.10;;;4.60;;
57401;SDS011;43226;51.110;6.998;2023-09-08T13:24:47;5.10;;;4.70;;
57401;SDS011;43226;51.110;6.998;2023-09-08T13:27:12;5.67;;;4.33;;
57401;SDS011;43226;51.110;6.998;2023-09-08T13:29:37;4.87;;;4.37;;
57401;SDS011;43226;51.110;6.998;2023-09-08T13:32:05;6.30;;;4.67;;
57401;SDS011;43226;51.110;6.998;2023-09-08T13:34:31;5.70;;;4.60;;
57401;SDS011;43226;51.110;6.998;2023-09-08T13:36:57;5.00;;;4.53;;
57401;SDS011;43226;51.110;6.998;2023-09-08T13:39:22;7.03;;;4.63;;
57401;SDS011;43226;51.110;6.998;2023-09-08T13:44:13;7.30;;;5.13;;
57401;SDS011;43226;51.110;6.998;2023-09-08T13:46:38;7.30;;;4.40;;
57401;SDS011;43226;51.110;6.998;2023-09-08T13:49:03;10.67;;;4.50;;
57401;SDS011;43226;51.110;6.998;2023-09-08T13:51:29;10.13;;;4.33;;
57401;SDS011;43226;51.110;6.998;2023-09-08T13:53:54;4.90;;;4.40;;
57401;SDS011;43226;51.110;6.998;2023-09-08T13:56:19;7.50;;;4.70;;
57401;SDS011;43226;51.110;6.998;2023-09-08T13:58:44;6.00;;;5.10;;
57401;SDS011;43226;51.110;6.998;2023-09-08T14:01:10;6.80;;;4.47;;
57401;SDS011;43226;51.110;6.998;2023-09-08T14:03:35;4.30;;;3.90;;
57401;SDS011;43226;51.110;6.998;2023-09-08T14:06:00;5.73;;;4.47;;
57401;SDS011;43226;51.110;6.998;2023-09-08T14:08:26;6.20;;;4.60;;
57401;SDS011;43226;51.110;6.998;2023-09-08T14:10:52;4.97;;;4.55;;
57401;SDS011;43226;51.110;6.998;2023-09-08T14:13:18;5.83;;;4.70;;
57401;SDS011;43226;51.110;6.998;2023-09-08T14:15:43;7.57;;;4.57;;
57401;SDS011;43226;51.110;6.998;2023-09-08T14:18:08;5.67;;;4.43;;
57401;SDS011;43226;51.110;6.998;2023-09-08T14:20:35;15.20;;;5.20;;
57401;SDS011;43226;51.110;6.998;2023-09-08T14:23:00;5.50;;;3.90;;
57401;SDS011;43226;51.110;6.998;2023-09-08T14:25:25;6.80;;;4.47;;
57401;SDS011;43226;51.110;6.998;2023-09-08T14:27:50;4.72;;;4.22;;
57401;SDS011;43226;51.110;6.998;2023-09-08T14:30:15;4.83;;;4.43;;
57401;SDS011;43226;51.110;6.998;2023-09-08T14:32:41;5.90;;;4.37;;
57401;SDS011;43226;51.110;6.998;2023-09-08T14:35:06;5.43;;;4.20;;
57401;SDS011;43226;51.110;6.998;2023-09-08T14:37:31;5.17;;;4.67;;
57401;SDS011;43226;51.110;6.998;2023-09-08T14:39:56;5.27;;;4.77;;
57401;SDS011;43226;51.110;6.998;2023-09-08T14:42:21;4.37;;;3.97;;
57401;SDS011;43226;51.110;6.998;2023-09-08T14:44:47;8.70;;;4.30;;
57401;SDS011;43226;51.110;6.998;2023-09-08T14:47:12;5.47;;;4.50;;
57401;SDS011;43226;51.110;6.998;2023-09-08T14:49:37;6.40;;;4.07;;
57401;SDS011;43226;51.110;6.998;2023-09-08T14:52:03;4.33;;;4.03;;